地図

経路データ

SID SEASON NUMBER BASIN SUBBASIN NAME ISO_TIME NATURE LAT LON WMO_WIND WMO_PRES WMO_AGENCY TRACK_TYPE DIST2LAND LANDFALL IFLAG USA_AGENCY USA_ATCF_ID USA_LAT USA_LON USA_RECORD USA_STATUS USA_WIND USA_PRES USA_SSHS USA_R34_NE USA_R34_SE USA_R34_SW USA_R34_NW USA_R50_NE USA_R50_SE USA_R50_SW USA_R50_NW USA_R64_NE USA_R64_SE USA_R64_SW USA_R64_NW USA_POCI USA_ROCI USA_RMW USA_EYE TOKYO_LAT TOKYO_LON TOKYO_GRADE TOKYO_WIND TOKYO_PRES TOKYO_R50_DIR TOKYO_R50_LONG TOKYO_R50_SHORT TOKYO_R30_DIR TOKYO_R30_LONG TOKYO_R30_SHORT TOKYO_LAND CMA_LAT CMA_LON CMA_CAT CMA_WIND CMA_PRES HKO_LAT HKO_LON HKO_CAT HKO_WIND HKO_PRES NEWDELHI_LAT NEWDELHI_LON NEWDELHI_GRADE NEWDELHI_WIND NEWDELHI_PRES NEWDELHI_CI NEWDELHI_DP NEWDELHI_POCI REUNION_LAT REUNION_LON REUNION_TYPE REUNION_WIND REUNION_PRES REUNION_TNUM REUNION_CI REUNION_RMW REUNION_R34_NE REUNION_R34_SE REUNION_R34_SW REUNION_R34_NW REUNION_R50_NE REUNION_R50_SE REUNION_R50_SW REUNION_R50_NW REUNION_R64_NE REUNION_R64_SE REUNION_R64_SW REUNION_R64_NW BOM_LAT BOM_LON BOM_TYPE BOM_WIND BOM_PRES BOM_TNUM BOM_CI BOM_RMW BOM_R34_NE BOM_R34_SE BOM_R34_SW BOM_R34_NW BOM_R50_NE BOM_R50_SE BOM_R50_SW BOM_R50_NW BOM_R64_NE BOM_R64_SE BOM_R64_SW BOM_R64_NW BOM_ROCI BOM_POCI BOM_EYE BOM_POS_METHOD BOM_PRES_METHOD NADI_LAT NADI_LON NADI_CAT NADI_WIND NADI_PRES WELLINGTON_LAT WELLINGTON_LON WELLINGTON_WIND WELLINGTON_PRES DS824_LAT DS824_LON DS824_STAGE DS824_WIND DS824_PRES TD9636_LAT TD9636_LON TD9636_STAGE TD9636_WIND TD9636_PRES TD9635_LAT TD9635_LON TD9635_WIND TD9635_PRES TD9635_ROCI NEUMANN_LAT NEUMANN_LON NEUMANN_CLASS NEUMANN_WIND NEUMANN_PRES MLC_LAT MLC_LON MLC_CLASS MLC_WIND MLC_PRES USA_GUST BOM_GUST BOM_GUST_PER REUNION_GUST REUNION_GUST_PER USA_SEAHGT USA_SEARAD_NE USA_SEARAD_SE USA_SEARAD_SW USA_SEARAD_NW STORM_SPEED STORM_DIR
1920290N15127 1920 47 WP MM NOT_NAMED 1920-10-15 22:00:00 NR 15.5000 127.000 main 332 332 __________O___ -1 15.5000 127.000 4 1 0
1920290N15127 1920 47 WP MM NOT_NAMED 1920-10-16 00:00:00 NR 15.5182 126.984 main 332 332 __________P___ -1 15.5182 126.984 4 1 318
1920290N15127 1920 47 WP MM NOT_NAMED 1920-10-16 03:00:00 NR 15.5512 126.961 main 338 329 __________P___ -1 15.5512 126.961 4 1 336
1920290N15127 1920 47 WP MM NOT_NAMED 1920-10-16 06:00:00 NR 15.5988 126.936 main 329 329 __________P___ -1 15.5988 126.936 4 1 335
1920290N15127 1920 47 WP MM NOT_NAMED 1920-10-16 09:00:00 NR 15.6697 126.909 main 335 335 __________P___ -1 15.6697 126.909 4 2 335
1920290N15127 1920 47 WP MM NOT_NAMED 1920-10-16 10:00:00 NR 15.7000 126.900 main 335 335 __________O___ -1 15.7000 126.900 4 2 346
1920290N15127 1920 47 WP MM NOT_NAMED 1920-10-16 12:00:00 NR 15.7715 126.881 main 342 342 __________P___ -1 15.7715 126.881 4 2 348
1920290N15127 1920 47 WP MM NOT_NAMED 1920-10-16 15:00:00 NR 15.8977 126.852 main 349 341 __________P___ -1 15.8977 126.852 4 3 347
1920290N15127 1920 47 WP MM NOT_NAMED 1920-10-16 18:00:00 NR 16.0328 126.825 main 348 348 __________P___ -1 16.0328 126.825 4 3 353
1920290N15127 1920 47 WP MM NOT_NAMED 1920-10-16 21:00:00 NR 16.1613 126.805 main 364 364 __________P___ -1 16.1613 126.805 4 3 355
1920290N15127 1920 47 WP MM NOT_NAMED 1920-10-16 22:00:00 NR 16.2000 126.800 main 364 364 __________O___ -1 16.2000 126.800 4 2 0
1920290N15127 1920 47 WP MM NOT_NAMED 1920-10-17 00:00:00 NR 16.2614 126.797 main 371 371 __________P___ -1 16.2614 126.797 4 2 351
1920290N15127 1920 47 WP MM NOT_NAMED 1920-10-17 03:00:00 NR 16.3409 126.799 main 371 371 __________P___ -1 16.3409 126.799 4 2 0
1920290N15127 1920 47 WP MM NOT_NAMED 1920-10-17 06:00:00 NR 16.4109 126.802 main 379 379 __________P___ -1 16.4109 126.802 4 1 5
1920290N15127 1920 47 WP MM NOT_NAMED 1920-10-17 09:00:00 NR 16.4775 126.802 main 387 387 __________P___ -1 16.4775 126.802 4 1 0
1920290N15127 1920 47 WP MM NOT_NAMED 1920-10-17 10:00:00 NR 16.5000 126.800 main 387 387 __________O___ -1 16.5000 126.800 4 1 0
1920290N15127 1920 47 WP MM NOT_NAMED 1920-10-17 12:00:00 NR 16.5474 126.786 main 387 395 __________P___ -1 16.5474 126.786 4 2 341
1920290N15127 1920 47 WP MM NOT_NAMED 1920-10-17 15:00:00 NR 16.6184 126.760 main 395 388 __________P___ -1 16.6184 126.760 4 2 341
1920290N15127 1920 47 WP MM NOT_NAMED 1920-10-17 18:00:00 NR 16.6921 126.731 main 397 397 __________P___ -1 16.6921 126.731 4 2 340
1920290N15127 1920 47 WP MM NOT_NAMED 1920-10-17 21:00:00 NR 16.7716 126.706 main 405 405 __________P___ -1 16.7716 126.706 4 2 345
1920290N15127 1920 47 WP MM NOT_NAMED 1920-10-17 22:00:00 NR 16.8000 126.700 main 405 405 __________O___ -1 16.8000 126.700 4 2 347
1920290N15127 1920 47 WP MM NOT_NAMED 1920-10-18 00:00:00 NR 16.8662 126.692 main 414 414 __________P___ -1 16.8662 126.692 4 2 356
1920290N15127 1920 47 WP MM NOT_NAMED 1920-10-18 03:00:00 NR 16.9719 126.685 main 423 423 __________P___ -1 16.9719 126.685 4 2 0
1920290N15127 1920 47 WP MM NOT_NAMED 1920-10-18 06:00:00 NR 17.0770 126.687 main 431 431 __________P___ -1 17.0770 126.687 4 2 7
1920290N15127 1920 47 WP MM NOT_NAMED 1920-10-18 09:00:00 NR 17.1721 126.695 main 440 440 __________P___ -1 17.1721 126.695 4 2 11
1920290N15127 1920 47 WP MM NOT_NAMED 1920-10-18 10:00:00 NR 17.2000 126.700 main 440 440 __________O___ -1 17.2000 126.700 4 1 33
1920290N15127 1920 47 WP MM NOT_NAMED 1920-10-18 12:00:00 NR 17.2054 126.714 main 440 440 __________P___ -1 17.2054 126.714 4 0 90
1920290N15127 1920 47 WP MM NOT_NAMED 1920-10-18 15:00:00 NR 17.2000 126.740 main 440 440 __________P___ -1 17.2000 126.740 4 1 69
1920290N15127 1920 47 WP MM NOT_NAMED 1920-10-18 18:00:00 NR 17.2257 126.769 main 447 447 __________P___ -1 17.2257 126.769 4 1 24
1920290N15127 1920 47 WP MM NOT_NAMED 1920-10-18 21:00:00 NR 17.3355 126.794 main 456 456 __________P___ -1 17.3355 126.794 4 3 10
1920290N15127 1920 47 WP MM NOT_NAMED 1920-10-18 22:00:00 NR 17.4000 126.800 main 459 459 __________O___ -1 17.4000 126.800 4 6 0
1920290N15127 1920 47 WP MM NOT_NAMED 1920-10-19 00:00:00 NR 17.6108 126.806 main 461 461 __________P___ -1 17.6108 126.806 4 8 0
1920290N15127 1920 47 WP MM NOT_NAMED 1920-10-19 03:00:00 NR 18.0219 126.808 main 469 469 __________P___ -1 18.0219 126.808 4 9 0
1920290N15127 1920 47 WP MM NOT_NAMED 1920-10-19 06:00:00 NR 18.4914 126.805 main 474 474 __________P___ -1 18.4914 126.805 4 9 0
1920290N15127 1920 47 WP MM NOT_NAMED 1920-10-19 09:00:00 NR 18.9567 126.801 main 478 478 __________P___ -1 18.9567 126.801 4 9 358
1920290N15127 1920 47 WP MM NOT_NAMED 1920-10-19 10:00:00 NR 19.1000 126.800 main 480 480 __________O___ -1 19.1000 126.800 4 7 357
1920290N15127 1920 47 WP MM NOT_NAMED 1920-10-19 12:00:00 NR 19.3102 126.792 main 484 484 __________P___ -1 19.3102 126.792 4 6 357
1920290N15127 1920 47 WP MM NOT_NAMED 1920-10-19 15:00:00 NR 19.5935 126.781 main 491 491 __________P___ -1 19.5935 126.781 4 6 357
1920290N15127 1920 47 WP MM NOT_NAMED 1920-10-19 18:00:00 NR 19.8718 126.777 main 501 501 __________P___ -1 19.8718 126.777 4 6 2
1920290N15127 1920 47 WP MM NOT_NAMED 1920-10-19 21:00:00 NR 20.1827 126.790 main 513 513 __________P___ -1 20.1827 126.790 4 6 0
1920290N15127 1920 47 WP MM NOT_NAMED 1920-10-19 22:00:00 NR 20.3000 126.800 main 517 517 __________O___ -1 20.3000 126.800 4 8 7
1920290N15127 1920 47 WP MM NOT_NAMED 1920-10-20 00:00:00 NR 20.5872 126.828 main 531 531 __________P___ -1 20.5872 126.828 4 9 6
1920290N15127 1920 47 WP MM NOT_NAMED 1920-10-20 03:00:00 NR 21.0624 126.888 main 568 568 __________P___ -1 21.0624 126.888 4 10 8
1920290N15127 1920 47 WP MM NOT_NAMED 1920-10-20 06:00:00 NR 21.5603 126.968 main 599 587 __________P___ -1 21.5603 126.968 4 10 10
1920290N15127 1920 47 WP MM NOT_NAMED 1920-10-20 09:00:00 NR 22.0465 127.065 main 597 589 __________P___ -1 22.0465 127.065 4 10 11
1920290N15127 1920 47 WP MM NOT_NAMED 1920-10-20 10:00:00 NR 22.2000 127.100 main 589 579 __________O___ -1 22.2000 127.100 4 8 11
1920290N15127 1920 47 WP MM NOT_NAMED 1920-10-20 12:00:00 NR 22.4465 127.152 main 589 571 __________P___ -1 22.4465 127.152 4 7 13
1920290N15127 1920 47 WP MM NOT_NAMED 1920-10-20 15:00:00 NR 22.7904 127.241 main 571 570 __________P___ -1 22.7904 127.241 4 7 15
1920290N15127 1920 47 WP MM NOT_NAMED 1920-10-20 18:00:00 NR 23.1423 127.361 main 580 571 __________P___ -1 23.1423 127.361 4 8 19
1920290N15127 1920 47 WP MM NOT_NAMED 1920-10-20 21:00:00 NR 23.5462 127.530 main 579 577 __________P___ -1 23.5462 127.530 4 9 22
1920290N15127 1920 47 WP MM NOT_NAMED 1920-10-20 22:00:00 NR 23.7000 127.600 main 585 582 __________O___ -1 23.7000 127.600 4 11 23
1920290N15127 1920 47 WP MM NOT_NAMED 1920-10-21 00:00:00 NR 24.0676 127.765 main 594 592 __________P___ -1 24.0676 127.765 4 13 23
1920290N15127 1920 47 WP MM NOT_NAMED 1920-10-21 03:00:00 NR 24.6821 128.064 main 615 615 __________P___ -1 24.6821 128.064 4 14 25
1920290N15127 1920 47 WP MM NOT_NAMED 1920-10-21 06:00:00 NR 25.3362 128.407 main 644 588 __________P___ -1 25.3362 128.407 4 15 26
1920290N15127 1920 47 WP MM NOT_NAMED 1920-10-21 09:00:00 NR 25.9895 128.775 main 588 563 __________P___ -1 25.9895 128.775 4 15 27
1920290N15127 1920 47 WP MM NOT_NAMED 1920-10-21 10:00:00 NR 26.2000 128.900 main 563 515 __________O___ -1 26.2000 128.900 4 14 27
1920290N15127 1920 47 WP MM NOT_NAMED 1920-10-21 12:00:00 NR 26.6071 129.131 main 515 439 __________P___ -1 26.6071 129.131 4 14 28
1920290N15127 1920 47 WP MM NOT_NAMED 1920-10-21 15:00:00 NR 27.1995 129.490 main 439 365 __________P___ -1 27.1995 129.490 4 13 30
1920290N15127 1920 47 WP MM NOT_NAMED 1920-10-21 18:00:00 NR 27.7534 129.866 main 365 303 __________P___ -1 27.7534 129.866 4 13 33
1920290N15127 1920 47 WP MM NOT_NAMED 1920-10-21 21:00:00 NR 28.2503 130.263 main 303 291 __________P___ -1 28.2503 130.263 4 12 36
1920290N15127 1920 47 WP MM NOT_NAMED 1920-10-21 22:00:00 NR 28.4000 130.400 main 291 256 __________O___ -1 28.4000 130.400 4 11 41
1920290N15127 1920 47 WP MM NOT_NAMED 1920-10-22 00:00:00 NR 28.6732 130.683 main 256 225 __________P___ -1 28.6732 130.683 4 11 45
1920290N15127 1920 47 WP MM NOT_NAMED 1920-10-22 03:00:00 NR 29.0276 131.123 main 226 204 __________P___ -1 29.0276 131.123 4 10 50
1920290N15127 1920 47 WP MM NOT_NAMED 1920-10-22 06:00:00 NR 29.3333 131.579 main 208 194 __________P___ -1 29.3333 131.579 4 10 54
1920290N15127 1920 47 WP MM NOT_NAMED 1920-10-22 09:00:00 NR 29.6105 132.044 main 199 197 __________P___ -1 29.6105 132.044 4 10 56
1920290N15127 1920 47 WP MM NOT_NAMED 1920-10-22 10:00:00 NR 29.7000 132.200 main 204 __________O___ -1 29.7000 132.200 4 10 57

デジタル台風データ・検索

IBTrACS Databaseについて

本データベースは、米国NOAAが公開する1842年以降の世界の熱帯低気圧のベストトラックデータアーカイブInternational Best Track Archive for Climate Stewardship (IBTrACS)を、ウェブで閲覧しやすい形式に変換したものです。

最終更新日:2021-10-21